New Creation — 3EGO6 — position and weather

sailwx.info

Track history (hours):
 
Tides and Currents Weather Stations Pressure Air Temp Water Temp Dewpoint Dewpoint Depression Visibility Wind Speed Wind Dir Waves Ship Positions

New Creation

Last reported at 2015-Jul-28 19:26 UTC. Time now 2015-Jul-28 19:40 UTC.
Position N 39°18' W 124°50'.

Length 176 m; draft 7.6 m.

Type: Cargo ship. MMSI: 353507000.

Date/timePositionNaut miles runAvg speedWind from/ knotsBaromVisibWave heightAir tempDewpointWater temp
2015-Jul-28 19:26N 39°18' W 124°50'910.2
2015-Jul-28 18:33N 39°11' W 124°42'1110.5
2015-Jul-28 17:32N 39°02' W 124°34'1010.5
2015-Jul-28 16:33N 38°54' W 124°25'1111.1
2015-Jul-28 15:33N 38°46' W 124°16'1111.2
2015-Jul-28 14:33N 38°37' W 124°07'1110.7
2015-Jul-28 13:33N 38°29' W 123°58'1111.3
2015-Jul-28 12:33N 38°21' W 123°48'1110.9
2015-Jul-28 11:34N 38°14' W 123°37'1211.6
2015-Jul-28 10:33N 38°10' W 123°23'1111.4
2015-Jul-28 09:33N 38°02' W 123°13'1211.8
2015-Jul-28 08:33N 37°55' W 123°01'1212.5
2015-Jul-28 07:33N 37°49' W 122°48'1010.3
2015-Jul-28 06:34N 37°47' W 122°35'1010.3
2015-Jul-28 05:33N 37°55' W 122°27'1110.6
2015-Jul-28 04:34N 38°03' W 122°18'9 9.0
2015-Jul-28 03:33N 38°03' W 122°07'10 9.8
2015-Jul-28 02:33N 38°03' W 121°54'9 8.9
2015-Jul-28 01:32N 38°02' W 121°43'8 7.4
2015-Jul-28 00:31N 38°04' W 121°34'7 7.3
2015-Jul-27 23:33N 37°60' W 121°27'6 5.7
2015-Jul-27 22:33N 37°57' W 121°20'1 1.4
2015-Jul-27 21:31N 37°58' W 121°22'0 0.0
2015-Jul-27 20:31N 37°58' W 121°22'0 0.0
2015-Jul-27 19:31N 37°58' W 121°22'0 0.0
2015-Jul-27 18:31N 37°58' W 121°22'0 0.0
2015-Jul-27 17:31N 37°58' W 121°22'0 0.0
2015-Jul-27 16:31N 37°58' W 121°22'0 0.0
2015-Jul-27 15:31N 37°58' W 121°22'0 0.0
2015-Jul-27 14:31N 37°58' W 121°22'0 0.0
2015-Jul-27 13:31N 37°58' W 121°22'0 0.0
2015-Jul-27 12:31N 37°58' W 121°22'0 0.0
2015-Jul-27 11:31N 37°58' W 121°22'0 0.0
2015-Jul-27 10:31N 37°58' W 121°22'0 0.0
2015-Jul-27 09:31N 37°58' W 121°22'0 0.0
2015-Jul-27 08:31N 37°58' W 121°22'0 0.0
2015-Jul-27 07:31N 37°58' W 121°22'0 0.0
2015-Jul-27 06:31N 37°58' W 121°22'0 0.0
2015-Jul-27 05:31N 37°58' W 121°22'0 0.0
2015-Jul-27 04:31N 37°58' W 121°22'0 0.0
2015-Jul-27 03:31N 37°58' W 121°22'0 0.0
2015-Jul-27 02:31N 37°58' W 121°22'0 0.0
2015-Jul-27 01:31N 37°58' W 121°22'0 0.0
2015-Jul-27 00:31N 37°58' W 121°22'0 0.0
2015-Jul-26 23:31N 37°58' W 121°22'0 0.0
2015-Jul-26 22:31N 37°58' W 121°22'0 0.0
2015-Jul-26 21:31N 37°58' W 121°22'0 0.0
2015-Jul-26 20:31N 37°58' W 121°22'0 0.0
2015-Jul-26 19:31N 37°58' W 121°22'0 0.0
2015-Jul-26 18:31N 37°58' W 121°22'0 0.0
2015-Jul-26 17:31N 37°58' W 121°22'0 0.0
2015-Jul-26 16:31N 37°58' W 121°22'0 0.0
2015-Jul-26 15:31N 37°58' W 121°22'0 0.0
2015-Jul-26 14:31N 37°58' W 121°22'0 0.0
2015-Jul-26 13:31N 37°58' W 121°22'4 4.5
2015-Jul-26 12:33N 37°60' W 121°27'8 7.7
2015-Jul-26 11:33N 38°05' W 121°34'6 6.3
2015-Jul-26 10:33N 38°03' W 121°42'8 8.5
2015-Jul-26 09:33N 38°02' W 121°53'8 7.8
2015-Jul-26 08:29N 38°04' W 122°03'6 6.9
2015-Jul-26 07:33N 38°03' W 122°11'1010.4
2015-Jul-26 06:33N 38°01' W 122°24'9 9.4
2015-Jul-26 05:33N 37°52' W 122°25'1110.9
2015-Jul-26 04:33N 37°46' W 122°37'1110.8
2015-Jul-26 03:33N 37°40' W 122°48'1211.7
2015-Jul-26 02:33N 37°33' W 123°00'9 8.8
2015-Jul-26 01:32N 37°26' W 123°06'1110.9
2015-Jul-26 00:31N 37°15' W 123°08'1212.3
2015-Jul-25 23:32N 37°04' W 123°03'1212.4
2015-Jul-25 22:33N 36°52' W 122°57'1212.1
2015-Jul-25 21:33N 36°41' W 122°51'1212.1
2015-Jul-25 20:33N 36°30' W 122°45'1212.0
2015-Jul-25 19:32N 36°19' W 122°39'1211.9
2015-Jul-25 18:33N 36°08' W 122°34'1211.9
2015-Jul-25 17:33N 35°57' W 122°28'1211.9
2015-Jul-25 16:33N 35°48' W 122°19'1211.6
2015-Jul-25 15:33N 35°38' W 122°10'1111.3
2015-Jul-25 14:33N 35°29' W 122°02'1211.8
2015-Jul-25 13:33N 35°20' W 121°54'1212.0
2015-Jul-25 12:33N 35°10' W 121°45'1212.0
2015-Jul-25 11:33N 35°00' W 121°36'1212.4
2015-Jul-25 10:33N 34°50' W 121°28'1312.8
2015-Jul-25 09:33N 34°40' W 121°19'1212.2
2015-Jul-25 08:33N 34°30' W 121°09'1312.9
2015-Jul-25 07:33N 34°27' W 120°54'1313.0
2015-Jul-25 06:33N 34°23' W 120°39'1312.3
2015-Jul-25 05:29N 34°20' W 120°24'1212.4
2015-Jul-25 04:33N 34°17' W 120°10'1312.4
2015-Jul-25 03:28N 34°13' W 119°54'1112.1
2015-Jul-25 02:33N 34°10' W 119°42'1212.4
2015-Jul-25 01:33N 34°07' W 119°27'1212.3
2015-Jul-25 00:33N 34°03' W 119°13'1212.3
2015-Jul-24 23:33N 33°57' W 119°00'1212.5
2015-Jul-24 22:33N 33°51' W 118°47'1312.8
2015-Jul-24 21:33N 33°45' W 118°34'1312.7
2015-Jul-24 20:33N 33°38' W 118°20'7 6.8
2015-Jul-24 19:33N 33°45' W 118°17'2 1.7
2015-Jul-24 18:27N 33°46' W 118°15'0 0.0
2015-Jul-24 17:30N 33°46' W 118°15'0 0.0
2015-Jul-24 16:30N 33°46' W 118°15'0 0.0
2015-Jul-24 15:24N 33°46' W 118°15'0 0.0
2015-Jul-24 14:33N 33°46' W 118°15'0 0.0
2015-Jul-24 13:33N 33°46' W 118°15'0 0.0
2015-Jul-24 12:30N 33°46' W 118°15'0 0.0
2015-Jul-24 11:33N 33°46' W 118°15'0 0.0
2015-Jul-24 10:33N 33°46' W 118°15'0 0.0
2015-Jul-24 09:30N 33°46' W 118°15'0 0.0
2015-Jul-24 08:33N 33°46' W 118°15'0 0.0
2015-Jul-24 07:33N 33°46' W 118°15'0 0.0
2015-Jul-24 05:27N 33°46' W 118°15'0 0.0
2015-Jul-24 04:33N 33°46' W 118°15'0 0.0
2015-Jul-24 03:33N 33°46' W 118°15'0 0.0
2015-Jul-24 02:33N 33°46' W 118°15'0 0.0
2015-Jul-24 01:33N 33°46' W 118°15'0 0.0
2015-Jul-24 00:33N 33°46' W 118°15'0 0.0
2015-Jul-23 23:33N 33°46' W 118°15'0 0.0
2015-Jul-23 22:33N 33°46' W 118°15'0 0.0
2015-Jul-23 21:33N 33°46' W 118°15'0 0.0
2015-Jul-23 20:33N 33°46' W 118°15'0 0.0
2015-Jul-23 19:33N 33°46' W 118°15'0 0.0
2015-Jul-23 18:33N 33°46' W 118°15'0 0.0
2015-Jul-23 17:33N 33°46' W 118°15'0 0.0
2015-Jul-23 16:33N 33°46' W 118°15'0 0.0
2015-Jul-23 15:33N 33°46' W 118°15'0 0.0
2015-Jul-23 09:27N 33°46' W 118°15'0 0.0
2015-Jul-23 08:18N 33°46' W 118°15'0 0.0
2015-Jul-23 07:21N 33°46' W 118°15'0 0.0
2015-Jul-23 06:27N 33°46' W 118°15'0 0.0
2015-Jul-23 05:33N 33°46' W 118°15'0 0.0
2015-Jul-23 04:33N 33°46' W 118°15'0 0.0
2015-Jul-23 03:33N 33°46' W 118°15'0 0.0
2015-Jul-23 02:33N 33°46' W 118°15'0 0.0
2015-Jul-23 01:33N 33°46' W 118°15'0 0.0
2015-Jul-23 00:33N 33°46' W 118°15'0 0.0
2015-Jul-22 23:33N 33°46' W 118°15'0 0.0
2015-Jul-22 22:33N 33°46' W 118°15'0 0.0
2015-Jul-22 21:33N 33°46' W 118°15'0 0.0
2015-Jul-22 20:33N 33°46' W 118°15'0 0.0
2015-Jul-22 19:33N 33°46' W 118°15'0 0.0
2015-Jul-22 18:33N 33°46' W 118°15'0 0.0
2015-Jul-22 17:30N 33°46' W 118°15'0 0.0
2015-Jul-22 16:33N 33°46' W 118°15'0 0.0
2015-Jul-22 15:33N 33°46' W 118°15'0 0.0
2015-Jul-22 14:33N 33°46' W 118°15'0 0.0
2015-Jul-22 13:33N 33°46' W 118°15'0 0.0
2015-Jul-22 12:30N 33°46' W 118°15'0 0.0
2015-Jul-22 11:33N 33°46' W 118°15'0 0.0
2015-Jul-22 10:33N 33°46' W 118°15'0 0.0
2015-Jul-22 09:27N 33°46' W 118°15'0 0.0
2015-Jul-22 08:33N 33°46' W 118°15'0 0.0
2015-Jul-22 07:33N 33°46' W 118°15'0 0.0
2015-Jul-22 06:33N 33°46' W 118°15'0 0.0
2015-Jul-22 05:30N 33°46' W 118°15'0 0.0
2015-Jul-22 04:33N 33°46' W 118°15'0 0.0
2015-Jul-22 03:30N 33°46' W 118°15'0 0.0
2015-Jul-22 02:33N 33°46' W 118°15'0 0.0
2015-Jul-22 01:33N 33°46' W 118°15'0 0.0
2015-Jul-22 00:21N 33°46' W 118°15'0 0.0
2015-Jul-21 23:33N 33°46' W 118°15'0 0.0
2015-Jul-21 22:30N 33°46' W 118°15'0 0.0
2015-Jul-21 21:30N 33°46' W 118°15'0 0.0
2015-Jul-21 20:30N 33°46' W 118°15'0 0.0
2015-Jul-21 19:33N 33°46' W 118°15'0 0.0
2015-Jul-21 18:33N 33°46' W 118°15'0 0.0
2015-Jul-21 17:30N 33°46' W 118°15'0 0.0
2015-Jul-21 16:33N 33°46' W 118°15'0 0.0
2015-Jul-21 15:33N 33°46' W 118°15'0 0.0
2015-Jul-21 14:33N 33°46' W 118°15'0 0.0
2015-Jul-21 13:33N 33°46' W 118°15'0 0.0
2015-Jul-21 12:33N 33°46' W 118°15'0 0.0
2015-Jul-21 11:33N 33°46' W 118°15'0 0.0
2015-Jul-21 10:33N 33°46' W 118°15'0 0.1
2015-Jul-21 09:33N 33°46' W 118°15'0 0.0
2015-Jul-21 08:18N 33°46' W 118°15'0 0.0
2015-Jul-21 07:30N 33°46' W 118°15'0 0.0
2015-Jul-21 06:30N 33°46' W 118°15'0 0.0
2015-Jul-21 05:33N 33°46' W 118°15'0 0.0
2015-Jul-21 04:33N 33°46' W 118°15'0 0.0
2015-Jul-21 03:33N 33°46' W 118°15'0 0.0
2015-Jul-21 02:33N 33°46' W 118°15'0 0.0
2015-Jul-21 01:33N 33°46' W 118°15'0 0.0
2015-Jul-21 00:33N 33°46' W 118°15'0 0.0
2015-Jul-20 23:33N 33°46' W 118°15'0 0.0
2015-Jul-20 22:33N 33°46' W 118°15'0 0.0
2015-Jul-20 21:33N 33°46' W 118°15'0 0.0
2015-Jul-20 20:33N 33°46' W 118°15'0 0.0
2015-Jul-20 19:33N 33°46' W 118°15'0 0.0
2015-Jul-20 18:27N 33°46' W 118°15'0 0.0
2015-Jul-20 17:33N 33°46' W 118°15'0 0.0
2015-Jul-20 16:33N 33°46' W 118°15'0 0.0
2015-Jul-20 15:33N 33°46' W 118°15'0 0.0
2015-Jul-20 14:30N 33°46' W 118°15'0 0.0
2015-Jul-20 12:33N 33°46' W 118°15'0 0.0
2015-Jul-20 11:27N 33°46' W 118°15'0 0.0
2015-Jul-20 10:21N 33°46' W 118°15'0 0.0
2015-Jul-20 09:33N 33°46' W 118°15'0 0.0
2015-Jul-20 08:33N 33°46' W 118°15'0 0.0
2015-Jul-20 07:33N 33°46' W 118°15'0 0.0
2015-Jul-20 06:33N 33°46' W 118°15'0 0.0
2015-Jul-20 05:24N 33°46' W 118°15'0 0.0
2015-Jul-20 04:33N 33°46' W 118°15'0 0.0
2015-Jul-20 03:33N 33°46' W 118°15'0 0.0
2015-Jul-20 02:30N 33°46' W 118°15'1 1.1
2015-Jul-20 01:33N 33°45' W 118°16'4 1.1
2015-Jul-19 22:17N 33°43' W 118°12'0 0.0
2015-Jul-19 15:32N 33°43' W 118°13'0 0.1
2015-Jul-19 14:32N 33°43' W 118°12'0 0.0
2015-Jul-19 13:32N 33°43' W 118°12'0 0.0
2015-Jul-19 12:32N 33°43' W 118°12'0 0.0
2015-Jul-19 11:23N 33°43' W 118°12'0 0.1
2015-Jul-19 10:29N 33°43' W 118°13'0 0.1
2015-Jul-19 09:32N 33°43' W 118°13'0 0.0
2015-Jul-19 08:29N 33°43' W 118°13'0 0.1
2015-Jul-19 07:23N 33°43' W 118°13'0 0.0
2015-Jul-19 00:29N 33°43' W 118°12'2 1.9
2015-Jul-18 23:33N 33°41' W 118°12'1510.4
2015-Jul-18 22:07N 33°27' W 118°06'611.5
2015-Jul-18 21:33N 33°21' W 118°04'1010.5
2015-Jul-18 20:33N 33°12' W 118°10'1211.6
2015-Jul-18 19:33N 33°09' W 118°23'  
Track history (hours):
 
Tides and Currents Weather Stations Pressure Air Temp Water Temp Dewpoint Dewpoint Depression Visibility Wind Speed Wind Dir Waves Ship Positions

New Creation

Last reported at 2015-Jul-28 19:26 UTC. Time now 2015-Jul-28 19:40 UTC.
Position N 39°18' W 124°50'.

Length 176 m; draft 7.6 m.

Type: Cargo ship. MMSI: 353507000.

Date/timePositionNaut miles runAvg speedWind from/ knotsBaromVisibWave heightAir tempDewpointWater temp
2015-Jul-28 19:26N 39°18' W 124°50'910.2
2015-Jul-28 18:33N 39°11' W 124°42'1110.5
2015-Jul-28 17:32N 39°02' W 124°34'1010.5
2015-Jul-28 16:33N 38°54' W 124°25'1111.1
2015-Jul-28 15:33N 38°46' W 124°16'1111.2
2015-Jul-28 14:33N 38°37' W 124°07'1110.7
2015-Jul-28 13:33N 38°29' W 123°58'1111.3
2015-Jul-28 12:33N 38°21' W 123°48'1110.9
2015-Jul-28 11:34N 38°14' W 123°37'1211.6
2015-Jul-28 10:33N 38°10' W 123°23'1111.4
2015-Jul-28 09:33N 38°02' W 123°13'1211.8
2015-Jul-28 08:33N 37°55' W 123°01'1212.5
2015-Jul-28 07:33N 37°49' W 122°48'1010.3
2015-Jul-28 06:34N 37°47' W 122°35'1010.3
2015-Jul-28 05:33N 37°55' W 122°27'1110.6
2015-Jul-28 04:34N 38°03' W 122°18'9 9.0
2015-Jul-28 03:33N 38°03' W 122°07'10 9.8
2015-Jul-28 02:33N 38°03' W 121°54'9 8.9
2015-Jul-28 01:32N 38°02' W 121°43'8 7.4
2015-Jul-28 00:31N 38°04' W 121°34'7 7.3
2015-Jul-27 23:33N 37°60' W 121°27'6 5.7
2015-Jul-27 22:33N 37°57' W 121°20'1 1.4
2015-Jul-27 21:31N 37°58' W 121°22'0 0.0
2015-Jul-27 20:31N 37°58' W 121°22'0 0.0
2015-Jul-27 19:31N 37°58' W 121°22'0 0.0
2015-Jul-27 18:31N 37°58' W 121°22'0 0.0
2015-Jul-27 17:31N 37°58' W 121°22'0 0.0
2015-Jul-27 16:31N 37°58' W 121°22'0 0.0
2015-Jul-27 15:31N 37°58' W 121°22'0 0.0
2015-Jul-27 14:31N 37°58' W 121°22'0 0.0
2015-Jul-27 13:31N 37°58' W 121°22'0 0.0
2015-Jul-27 12:31N 37°58' W 121°22'0 0.0
2015-Jul-27 11:31N 37°58' W 121°22'0 0.0
2015-Jul-27 10:31N 37°58' W 121°22'0 0.0
2015-Jul-27 09:31N 37°58' W 121°22'0 0.0
2015-Jul-27 08:31N 37°58' W 121°22'0 0.0
2015-Jul-27 07:31N 37°58' W 121°22'0 0.0
2015-Jul-27 06:31N 37°58' W 121°22'0 0.0
2015-Jul-27 05:31N 37°58' W 121°22'0 0.0
2015-Jul-27 04:31N 37°58' W 121°22'0 0.0
2015-Jul-27 03:31N 37°58' W 121°22'0 0.0
2015-Jul-27 02:31N 37°58' W 121°22'0 0.0
2015-Jul-27 01:31N 37°58' W 121°22'0 0.0
2015-Jul-27 00:31N 37°58' W 121°22'0 0.0
2015-Jul-26 23:31N 37°58' W 121°22'0 0.0
2015-Jul-26 22:31N 37°58' W 121°22'0 0.0
2015-Jul-26 21:31N 37°58' W 121°22'0 0.0
2015-Jul-26 20:31N 37°58' W 121°22'0 0.0
2015-Jul-26 19:31N 37°58' W 121°22'0 0.0
2015-Jul-26 18:31N 37°58' W 121°22'0 0.0
2015-Jul-26 17:31N 37°58' W 121°22'0 0.0
2015-Jul-26 16:31N 37°58' W 121°22'0 0.0
2015-Jul-26 15:31N 37°58' W 121°22'0 0.0
2015-Jul-26 14:31N 37°58' W 121°22'0 0.0
2015-Jul-26 13:31N 37°58' W 121°22'4 4.5
2015-Jul-26 12:33N 37°60' W 121°27'8 7.7
2015-Jul-26 11:33N 38°05' W 121°34'6 6.3
2015-Jul-26 10:33N 38°03' W 121°42'8 8.5
2015-Jul-26 09:33N 38°02' W 121°53'8 7.8
2015-Jul-26 08:29N 38°04' W 122°03'6 6.9
2015-Jul-26 07:33N 38°03' W 122°11'1010.4
2015-Jul-26 06:33N 38°01' W 122°24'9 9.4
2015-Jul-26 05:33N 37°52' W 122°25'1110.9
2015-Jul-26 04:33N 37°46' W 122°37'1110.8
2015-Jul-26 03:33N 37°40' W 122°48'1211.7
2015-Jul-26 02:33N 37°33' W 123°00'9 8.8
2015-Jul-26 01:32N 37°26' W 123°06'1110.9
2015-Jul-26 00:31N 37°15' W 123°08'1212.3
2015-Jul-25 23:32N 37°04' W 123°03'1212.4
2015-Jul-25 22:33N 36°52' W 122°57'1212.1
2015-Jul-25 21:33N 36°41' W 122°51'1212.1
2015-Jul-25 20:33N 36°30' W 122°45'1212.0
2015-Jul-25 19:32N 36°19' W 122°39'1211.9
2015-Jul-25 18:33N 36°08' W 122°34'1211.9
2015-Jul-25 17:33N 35°57' W 122°28'1211.9
2015-Jul-25 16:33N 35°48' W 122°19'1211.6
2015-Jul-25 15:33N 35°38' W 122°10'1111.3
2015-Jul-25 14:33N 35°29' W 122°02'1211.8
2015-Jul-25 13:33N 35°20' W 121°54'1212.0
2015-Jul-25 12:33N 35°10' W 121°45'1212.0
2015-Jul-25 11:33N 35°00' W 121°36'1212.4
2015-Jul-25 10:33N 34°50' W 121°28'1312.8
2015-Jul-25 09:33N 34°40' W 121°19'1212.2
2015-Jul-25 08:33N 34°30' W 121°09'1312.9
2015-Jul-25 07:33N 34°27' W 120°54'1313.0
2015-Jul-25 06:33N 34°23' W 120°39'1312.3
2015-Jul-25 05:29N 34°20' W 120°24'1212.4
2015-Jul-25 04:33N 34°17' W 120°10'1312.4
2015-Jul-25 03:28N 34°13' W 119°54'1112.1
2015-Jul-25 02:33N 34°10' W 119°42'1212.4
2015-Jul-25 01:33N 34°07' W 119°27'1212.3
2015-Jul-25 00:33N 34°03' W 119°13'1212.3
2015-Jul-24 23:33N 33°57' W 119°00'1212.5
2015-Jul-24 22:33N 33°51' W 118°47'1312.8
2015-Jul-24 21:33N 33°45' W 118°34'1312.7
2015-Jul-24 20:33N 33°38' W 118°20'7 6.8
2015-Jul-24 19:33N 33°45' W 118°17'2 1.7
2015-Jul-24 18:27N 33°46' W 118°15'0 0.0
2015-Jul-24 17:30N 33°46' W 118°15'0 0.0
2015-Jul-24 16:30N 33°46' W 118°15'0 0.0
2015-Jul-24 15:24N 33°46' W 118°15'0 0.0
2015-Jul-24 14:33N 33°46' W 118°15'0 0.0
2015-Jul-24 13:33N 33°46' W 118°15'0 0.0
2015-Jul-24 12:30N 33°46' W 118°15'0 0.0
2015-Jul-24 11:33N 33°46' W 118°15'0 0.0
2015-Jul-24 10:33N 33°46' W 118°15'0 0.0
2015-Jul-24 09:30N 33°46' W 118°15'0 0.0
2015-Jul-24 08:33N 33°46' W 118°15'0 0.0
2015-Jul-24 07:33N 33°46' W 118°15'0 0.0
2015-Jul-24 05:27N 33°46' W 118°15'0 0.0
2015-Jul-24 04:33N 33°46' W 118°15'0 0.0
2015-Jul-24 03:33N 33°46' W 118°15'0 0.0
2015-Jul-24 02:33N 33°46' W 118°15'0 0.0
2015-Jul-24 01:33N 33°46' W 118°15'0 0.0
2015-Jul-24 00:33N 33°46' W 118°15'0 0.0
2015-Jul-23 23:33N 33°46' W 118°15'0 0.0
2015-Jul-23 22:33N 33°46' W 118°15'0 0.0
2015-Jul-23 21:33N 33°46' W 118°15'0 0.0
2015-Jul-23 20:33N 33°46' W 118°15'0 0.0
2015-Jul-23 19:33N 33°46' W 118°15'0 0.0
2015-Jul-23 18:33N 33°46' W 118°15'0 0.0
2015-Jul-23 17:33N 33°46' W 118°15'0 0.0
2015-Jul-23 16:33N 33°46' W 118°15'0 0.0
2015-Jul-23 15:33N 33°46' W 118°15'0 0.0
2015-Jul-23 09:27N 33°46' W 118°15'0 0.0
2015-Jul-23 08:18N 33°46' W 118°15'0 0.0
2015-Jul-23 07:21N 33°46' W 118°15'0 0.0
2015-Jul-23 06:27N 33°46' W 118°15'0 0.0
2015-Jul-23 05:33N 33°46' W 118°15'0 0.0
2015-Jul-23 04:33N 33°46' W 118°15'0 0.0
2015-Jul-23 03:33N 33°46' W 118°15'0 0.0
2015-Jul-23 02:33N 33°46' W 118°15'0 0.0
2015-Jul-23 01:33N 33°46' W 118°15'0 0.0
2015-Jul-23 00:33N 33°46' W 118°15'0 0.0
2015-Jul-22 23:33N 33°46' W 118°15'0 0.0
2015-Jul-22 22:33N 33°46' W 118°15'0 0.0
2015-Jul-22 21:33N 33°46' W 118°15'0 0.0
2015-Jul-22 20:33N 33°46' W 118°15'0 0.0
2015-Jul-22 19:33N 33°46' W 118°15'0 0.0
2015-Jul-22 18:33N 33°46' W 118°15'0 0.0
2015-Jul-22 17:30N 33°46' W 118°15'0 0.0
2015-Jul-22 16:33N 33°46' W 118°15'0 0.0
2015-Jul-22 15:33N 33°46' W 118°15'0 0.0
2015-Jul-22 14:33N 33°46' W 118°15'0 0.0
2015-Jul-22 13:33N 33°46' W 118°15'0 0.0
2015-Jul-22 12:30N 33°46' W 118°15'0 0.0
2015-Jul-22 11:33N 33°46' W 118°15'0 0.0
2015-Jul-22 10:33N 33°46' W 118°15'0 0.0
2015-Jul-22 09:27N 33°46' W 118°15'0 0.0
2015-Jul-22 08:33N 33°46' W 118°15'0 0.0
2015-Jul-22 07:33N 33°46' W 118°15'0 0.0
2015-Jul-22 06:33N 33°46' W 118°15'0 0.0
2015-Jul-22 05:30N 33°46' W 118°15'0 0.0
2015-Jul-22 04:33N 33°46' W 118°15'0 0.0
2015-Jul-22 03:30N 33°46' W 118°15'0 0.0
2015-Jul-22 02:33N 33°46' W 118°15'0 0.0
2015-Jul-22 01:33N 33°46' W 118°15'0 0.0
2015-Jul-22 00:21N 33°46' W 118°15'0 0.0
2015-Jul-21 23:33N 33°46' W 118°15'0 0.0
2015-Jul-21 22:30N 33°46' W 118°15'0 0.0
2015-Jul-21 21:30N 33°46' W 118°15'0 0.0
2015-Jul-21 20:30N 33°46' W 118°15'0 0.0
2015-Jul-21 19:33N 33°46' W 118°15'0 0.0
2015-Jul-21 18:33N 33°46' W 118°15'0 0.0
2015-Jul-21 17:30N 33°46' W 118°15'0 0.0
2015-Jul-21 16:33N 33°46' W 118°15'0 0.0
2015-Jul-21 15:33N 33°46' W 118°15'0 0.0
2015-Jul-21 14:33N 33°46' W 118°15'0 0.0
2015-Jul-21 13:33N 33°46' W 118°15'0 0.0
2015-Jul-21 12:33N 33°46' W 118°15'0 0.0
2015-Jul-21 11:33N 33°46' W 118°15'0 0.0
2015-Jul-21 10:33N 33°46' W 118°15'0 0.1
2015-Jul-21 09:33N 33°46' W 118°15'0 0.0
2015-Jul-21 08:18N 33°46' W 118°15'0 0.0
2015-Jul-21 07:30N 33°46' W 118°15'0 0.0
2015-Jul-21 06:30N 33°46' W 118°15'0 0.0
2015-Jul-21 05:33N 33°46' W 118°15'0 0.0
2015-Jul-21 04:33N 33°46' W 118°15'0 0.0
2015-Jul-21 03:33N 33°46' W 118°15'0 0.0
2015-Jul-21 02:33N 33°46' W 118°15'0 0.0
2015-Jul-21 01:33N 33°46' W 118°15'0 0.0
2015-Jul-21 00:33N 33°46' W 118°15'0 0.0
2015-Jul-20 23:33N 33°46' W 118°15'0 0.0
2015-Jul-20 22:33N 33°46' W 118°15'0 0.0
2015-Jul-20 21:33N 33°46' W 118°15'0 0.0
2015-Jul-20 20:33N 33°46' W 118°15'0 0.0
2015-Jul-20 19:33N 33°46' W 118°15'0 0.0
2015-Jul-20 18:27N 33°46' W 118°15'0 0.0
2015-Jul-20 17:33N 33°46' W 118°15'0 0.0
2015-Jul-20 16:33N 33°46' W 118°15'0 0.0
2015-Jul-20 15:33N 33°46' W 118°15'0 0.0
2015-Jul-20 14:30N 33°46' W 118°15'0 0.0
2015-Jul-20 12:33N 33°46' W 118°15'0 0.0
2015-Jul-20 11:27N 33°46' W 118°15'0 0.0
2015-Jul-20 10:21N 33°46' W 118°15'0 0.0
2015-Jul-20 09:33N 33°46' W 118°15'0 0.0
2015-Jul-20 08:33N 33°46' W 118°15'0 0.0
2015-Jul-20 07:33N 33°46' W 118°15'0 0.0
2015-Jul-20 06:33N 33°46' W 118°15'0 0.0
2015-Jul-20 05:24N 33°46' W 118°15'0 0.0
2015-Jul-20 04:33N 33°46' W 118°15'0 0.0
2015-Jul-20 03:33N 33°46' W 118°15'0 0.0
2015-Jul-20 02:30N 33°46' W 118°15'1 1.1
2015-Jul-20 01:33N 33°45' W 118°16'4 1.1
2015-Jul-19 22:17N 33°43' W 118°12'0 0.0
2015-Jul-19 15:32N 33°43' W 118°13'0 0.1
2015-Jul-19 14:32N 33°43' W 118°12'0 0.0
2015-Jul-19 13:32N 33°43' W 118°12'0 0.0
2015-Jul-19 12:32N 33°43' W 118°12'0 0.0
2015-Jul-19 11:23N 33°43' W 118°12'0 0.1
2015-Jul-19 10:29N 33°43' W 118°13'0 0.1
2015-Jul-19 09:32N 33°43' W 118°13'0 0.0
2015-Jul-19 08:29N 33°43' W 118°13'0 0.1
2015-Jul-19 07:23N 33°43' W 118°13'0 0.0
2015-Jul-19 00:29N 33°43' W 118°12'2 1.9
2015-Jul-18 23:33N 33°41' W 118°12'1510.4
2015-Jul-18 22:07N 33°27' W 118°06'611.5
2015-Jul-18 21:33N 33°21' W 118°04'1010.5
2015-Jul-18 20:33N 33°12' W 118°10'1211.6
2015-Jul-18 19:33N 33°09' W 118°23'  

Dump ship's entire track history